Dades meteomassalio
Diari Summary for Marc 7, 2017 Units:  Metric    English   Both
« Previous Day
Next Day »
Diari Semanal Mensual Anual Personalitzat
  Maxima: Minima: Mijana:
Temperatura: 18.5 °C 8.8 °C 13.4 °C
Rosada: 9.2 °C 3.3 °C 6.2 °C
Humitat: 71 % 52 % 62 %
Velocitat del vent: 72.2 km/h 18.5 km/h 38.8 km/h
Racha vent: 72.2 km/h - -
Vent:- - NW
Pressio: 1024.9 hPa 1021.9 hPa -
Pluja: 0.0 mm    
Historical Graphs
 
 
Tabular Data for Marc 7, 2017
Time Temperature Dew Point Pressure Wind Wind Speed Wind Gust Humidity Rainfall Rate (Hourly) solar Conditions
00:04 10.9 °C 4.4 °C 1024.6 hPa WNW 18.5 km/h 18.5 km/h 64 % 0.0 mm 0.0 W/m2 CLR
00:06 10.9 °C 4.3 °C 1024.6 hPa WNW 22.2 km/h 22.2 km/h 64 % 0.0 mm 0.0 W/m2 CLR
00:10 10.8 °C 4.4 °C 1024.6 hPa WNW 25.9 km/h 25.9 km/h 65 % 0.0 mm 0.0 W/m2 CLR
00:15 10.8 °C 4.4 °C 1024.6 hPa WNW 29.6 km/h 29.6 km/h 65 % 0.0 mm 0.0 W/m2 CLR
00:18 10.7 °C 4.4 °C 1024.9 hPa WNW 20.4 km/h 20.4 km/h 65 % 0.0 mm 0.0 W/m2 CLR
00:20 10.7 °C 4.6 °C 1024.6 hPa WNW 27.8 km/h 27.8 km/h 66 % 0.0 mm 0.0 W/m2 CLR
00:25 10.6 °C 4.5 °C 1024.9 hPa NW 24.1 km/h 24.1 km/h 66 % 0.0 mm 0.0 W/m2 CLR
00:30 10.6 °C 4.4 °C 1024.9 hPa WNW 22.2 km/h 22.2 km/h 66 % 0.0 mm 0.0 W/m2 CLR
00:35 10.5 °C 4.4 °C 1024.9 hPa NW 24.1 km/h 24.1 km/h 66 % 0.0 mm 0.0 W/m2 CLR
00:40 10.4 °C 4.5 °C 1024.6 hPa NW 25.9 km/h 25.9 km/h 67 % 0.0 mm 0.0 W/m2 CLR
00:45 10.4 °C 4.6 °C 1024.6 hPa NNW 20.4 km/h 20.4 km/h 67 % 0.0 mm 0.0 W/m2 CLR
00:50 10.5 °C 4.6 °C 1024.6 hPa WNW 25.9 km/h 25.9 km/h 67 % 0.0 mm 0.0 W/m2 CLR
00:55 10.5 °C 4.6 °C 1024.6 hPa NW 24.1 km/h 24.1 km/h 67 % 0.0 mm 0.0 W/m2 CLR
01:00 10.5 °C 4.6 °C 1024.6 hPa NNW 22.2 km/h 22.2 km/h 67 % 0.0 mm 0.0 W/m2 CLR
01:05 10.5 °C 4.6 °C 1024.6 hPa NW 22.2 km/h 22.2 km/h 67 % 0.0 mm 0.0 W/m2 CLR
01:10 10.4 °C 4.5 °C 1024.6 hPa NW 20.9 km/h 20.9 km/h 67 % 0.0 mm 0.0 W/m2 CLR
01:15 10.4 °C 4.5 °C 1024.6 hPa WNW 27.8 km/h 27.8 km/h 67 % 0.0 mm 0.0 W/m2 CLR
01:20 10.4 °C 4.5 °C 1024.6 hPa WNW 25.9 km/h 25.9 km/h 67 % 0.0 mm 0.0 W/m2 CLR
01:24 10.3 °C 4.4 °C 1024.6 hPa NW 25.9 km/h 25.9 km/h 67 % 0.0 mm 0.0 W/m2 CLR
01:28 10.3 °C 4.4 °C 1024.6 hPa NW 25.9 km/h 25.9 km/h 67 % 0.0 mm 0.0 W/m2 CLR
01:32 10.2 °C 4.5 °C 1024.3 hPa WNW 19.3 km/h 20.1 km/h 68 % 0.0 mm 0.0 W/m2 CLR
01:37 10.2 °C 4.3 °C 1024.6 hPa WNW 22.2 km/h 22.2 km/h 67 % 0.0 mm 0.0 W/m2 CLR
01:42 10.2 °C 4.4 °C 1024.3 hPa WNW 31.5 km/h 31.5 km/h 67 % 0.0 mm 0.0 W/m2 CLR
01:47 10.2 °C 4.3 °C 1024.6 hPa WNW 20.4 km/h 20.4 km/h 67 % 0.0 mm 0.0 W/m2 CLR
01:52 10.2 °C 4.3 °C 1024.3 hPa NW 31.5 km/h 31.5 km/h 67 % 0.0 mm 0.0 W/m2 CLR
01:53 10.1 °C 4.3 °C 1024.3 hPa NW 31.5 km/h 31.5 km/h 67 % 0.0 mm 0.0 W/m2 CLR
01:56 10.1 °C 4.3 °C 1024.6 hPa NW 31.5 km/h 31.5 km/h 67 % 0.0 mm 0.0 W/m2 CLR
02:00 10.1 °C 4.2 °C 1024.6 hPa NW 31.5 km/h 31.5 km/h 67 % 0.0 mm 0.0 W/m2 CLR
02:02 10.1 °C 4.2 °C 1024.3 hPa WNW 33.3 km/h 33.3 km/h 67 % 0.0 mm 0.0 W/m2 CLR
02:07 10.1 °C 4.2 °C 1024.3 hPa WNW 27.8 km/h 27.8 km/h 67 % 0.0 mm 0.0 W/m2 CLR
02:12 10.1 °C 4.3 °C 1024.3 hPa WNW 29.6 km/h 29.6 km/h 67 % 0.0 mm 0.0 W/m2 CLR
02:17 10.1 °C 4.2 °C 1024.3 hPa WNW 31.5 km/h 31.5 km/h 67 % 0.0 mm 0.0 W/m2 CLR
02:22 10.1 °C 4.2 °C 1024.3 hPa WNW 38.9 km/h 38.9 km/h 67 % 0.0 mm 0.0 W/m2 CLR
02:27 10.1 °C 4.3 °C 1024.3 hPa WNW 37.0 km/h 37.0 km/h 67 % 0.0 mm 0.0 W/m2 CLR
02:32 10.2 °C 4.3 °C 1024.3 hPa WNW 38.9 km/h 38.9 km/h 67 % 0.0 mm 0.0 W/m2 CLR
02:37 10.1 °C 4.3 °C 1024.3 hPa NW 35.2 km/h 35.2 km/h 67 % 0.0 mm 0.0 W/m2 CLR
02:42 10.1 °C 4.1 °C 1024.3 hPa WNW 38.9 km/h 38.9 km/h 66 % 0.0 mm 0.0 W/m2 CLR
02:47 10.1 °C 4.2 °C 1024.3 hPa WNW 33.3 km/h 33.3 km/h 67 % 0.0 mm 0.0 W/m2 CLR
02:52 10.1 °C 4.0 °C 1024.3 hPa NW 29.0 km/h 29.0 km/h 66 % 0.0 mm 0.0 W/m2 CLR
02:57 10.1 °C 4.0 °C 1024.6 hPa WNW 40.7 km/h 40.7 km/h 66 % 0.0 mm 0.0 W/m2 CLR
02:58 10.1 °C 4.1 °C 1024.6 hPa WNW 40.7 km/h 40.7 km/h 66 % 0.0 mm 0.0 W/m2 CLR
03:03 10.1 °C 4.2 °C 1024.3 hPa WNW 42.6 km/h 42.6 km/h 67 % 0.0 mm 0.0 W/m2 CLR
03:08 10.1 °C 4.0 °C 1024.3 hPa WNW 37.0 km/h 37.0 km/h 66 % 0.0 mm 0.0 W/m2 CLR
03:13 10.0 °C 4.2 °C 1023.9 hPa WNW 31.5 km/h 31.5 km/h 67 % 0.0 mm 0.0 W/m2 CLR
03:18 9.9 °C 4.1 °C 1023.9 hPa WNW 32.2 km/h 32.2 km/h 67 % 0.0 mm 0.0 W/m2 CLR
03:23 9.9 °C 4.1 °C 1023.9 hPa WNW 31.5 km/h 31.5 km/h 67 % 0.0 mm 0.0 W/m2 CLR
03:28 9.9 °C 4.3 °C 1023.9 hPa West 37.0 km/h 37.0 km/h 68 % 0.0 mm 0.0 W/m2 CLR
03:33 9.8 °C 4.2 °C 1023.9 hPa WNW 31.5 km/h 31.5 km/h 68 % 0.0 mm 0.0 W/m2 CLR
03:38 9.8 °C 4.2 °C 1023.9 hPa WNW 31.5 km/h 31.5 km/h 68 % 0.0 mm 0.0 W/m2 CLR
03:43 9.7 °C 4.1 °C 1023.9 hPa WNW 31.5 km/h 31.5 km/h 68 % 0.0 mm 0.0 W/m2 CLR
03:48 9.6 °C 4.2 °C 1023.9 hPa WNW 33.3 km/h 33.3 km/h 69 % 0.0 mm 0.0 W/m2 CLR
03:53 9.6 °C 4.2 °C 1023.9 hPa WNW 35.4 km/h 35.4 km/h 69 % 0.0 mm 0.0 W/m2 CLR
03:58 9.7 °C 4.1 °C 1023.6 hPa WNW 38.9 km/h 38.9 km/h 68 % 0.0 mm 0.0 W/m2 CLR
04:03 9.6 °C 4.0 °C 1023.9 hPa WNW 37.0 km/h 37.0 km/h 68 % 0.0 mm 0.0 W/m2 CLR
04:08 9.6 °C 4.0 °C 1023.6 hPa WNW 38.9 km/h 38.9 km/h 68 % 0.0 mm 0.0 W/m2 CLR
04:13 9.7 °C 3.9 °C 1023.6 hPa WNW 46.3 km/h 46.3 km/h 67 % 0.0 mm 0.0 W/m2 CLR
04:18 9.6 °C 3.8 °C 1023.6 hPa WNW 40.7 km/h 40.7 km/h 67 % 0.0 mm 0.0 W/m2 CLR
04:23 9.6 °C 3.9 °C 1023.6 hPa West 38.9 km/h 38.9 km/h 68 % 0.0 mm 0.0 W/m2 CLR
04:28 9.6 °C 3.8 °C 1023.6 hPa West 35.2 km/h 35.2 km/h 67 % 0.0 mm 0.0 W/m2 CLR
04:33 9.7 °C 3.9 °C 1023.2 hPa WNW 37.0 km/h 37.0 km/h 67 % 0.0 mm 0.0 W/m2 CLR
04:38 9.6 °C 3.8 °C 1023.2 hPa WNW 35.2 km/h 35.2 km/h 67 % 0.0 mm 0.0 W/m2 CLR
04:43 9.6 °C 3.8 °C 1023.6 hPa WNW 40.7 km/h 40.7 km/h 67 % 0.0 mm 0.0 W/m2 CLR
04:48 9.7 °C 3.8 °C 1023.2 hPa WNW 37.0 km/h 37.0 km/h 67 % 0.0 mm 0.0 W/m2 CLR
04:53 9.6 °C 3.8 °C 1023.2 hPa WNW 42.6 km/h 42.6 km/h 67 % 0.0 mm 0.0 W/m2 CLR
04:58 9.6 °C 3.7 °C 1023.6 hPa NW 37.0 km/h 37.0 km/h 67 % 0.0 mm 0.0 W/m2 CLR
05:03 9.6 °C 3.7 °C 1023.6 hPa WNW 33.3 km/h 33.3 km/h 67 % 0.0 mm 0.0 W/m2 CLR
05:08 9.5 °C 3.7 °C 1023.6 hPa NW 31.5 km/h 31.5 km/h 67 % 0.0 mm 0.0 W/m2 CLR
05:13 9.4 °C 3.6 °C 1023.2 hPa West 38.9 km/h 38.9 km/h 67 % 0.0 mm 0.0 W/m2 CLR
05:18 9.4 °C 3.8 °C 1023.6 hPa WNW 35.2 km/h 35.2 km/h 68 % 0.0 mm 0.0 W/m2 CLR
05:23 9.4 °C 3.8 °C 1023.6 hPa WNW 38.9 km/h 38.9 km/h 68 % 0.0 mm 0.0 W/m2 CLR
05:28 9.3 °C 3.7 °C 1023.6 hPa West 35.2 km/h 35.2 km/h 68 % 0.0 mm 0.0 W/m2 CLR
05:33 9.3 °C 3.7 °C 1023.6 hPa WNW 33.3 km/h 33.3 km/h 68 % 0.0 mm 0.0 W/m2 CLR
05:38 9.2 °C 3.8 °C 1023.6 hPa WNW 29.6 km/h 29.6 km/h 69 % 0.0 mm 0.0 W/m2 CLR
05:43 9.1 °C 3.7 °C 1023.6 hPa WNW 37.0 km/h 37.0 km/h 69 % 0.0 mm 0.0 W/m2 CLR
05:48 9.1 °C 3.7 °C 1023.2 hPa West 25.9 km/h 25.9 km/h 69 % 0.0 mm 0.0 W/m2 CLR
05:53 9.1 °C 3.7 °C 1023.6 hPa WNW 32.2 km/h 32.2 km/h 69 % 0.0 mm 0.0 W/m2 CLR
05:58 9.2 °C 3.8 °C 1023.6 hPa WNW 32.2 km/h 32.2 km/h 69 % 0.0 mm 0.0 W/m2 CLR
06:03 9.2 °C 3.8 °C 1023.6 hPa WNW 37.0 km/h 37.0 km/h 69 % 0.0 mm 0.0 W/m2 CLR
06:08 9.1 °C 3.7 °C 1023.6 hPa WNW 42.6 km/h 42.6 km/h 69 % 0.0 mm 0.0 W/m2 CLR
06:13 9.1 °C 3.7 °C 1023.9 hPa WNW 30.6 km/h 30.6 km/h 69 % 0.0 mm 0.0 W/m2 CLR
06:18 9.1 °C 3.7 °C 1023.9 hPa WNW 32.2 km/h 32.2 km/h 69 % 0.0 mm 0.0 W/m2 CLR
06:23 9.0 °C 3.6 °C 1023.9 hPa NW 33.8 km/h 33.8 km/h 69 % 0.0 mm 0.0 W/m2 CLR
06:28 8.9 °C 3.5 °C 1024.3 hPa WNW 25.9 km/h 25.9 km/h 69 % 0.0 mm 0.0 W/m2 CLR
06:33 8.9 °C 3.5 °C 1023.9 hPa NW 33.3 km/h 33.3 km/h 69 % 0.0 mm 0.0 W/m2 CLR
06:38 8.9 °C 3.3 °C 1024.3 hPa NW 29.6 km/h 29.6 km/h 68 % 0.0 mm 0.0 W/m2 CLR
06:43 8.9 °C 3.3 °C 1024.3 hPa WNW 31.5 km/h 31.5 km/h 68 % 0.0 mm 0.0 W/m2 CLR
06:48 8.8 °C 3.4 °C 1024.3 hPa NW 33.3 km/h 33.3 km/h 69 % 0.0 mm 0.0 W/m2 CLR
06:53 8.8 °C 3.4 °C 1024.3 hPa WNW 35.2 km/h 35.2 km/h 69 % 0.0 mm 0.0 W/m2 CLR
06:58 8.8 °C 3.4 °C 1024.3 hPa WNW 31.5 km/h 31.5 km/h 69 % 0.0 mm 0.0 W/m2 CLR
07:04 8.8 °C 3.4 °C 1024.3 hPa WNW 35.2 km/h 35.2 km/h 69 % 0.0 mm 0.0 W/m2 CLR
07:09 8.8 °C 3.4 °C 1024.3 hPa WNW 27.8 km/h 27.8 km/h 69 % 0.0 mm 0.0 W/m2 CLR
07:14 8.8 °C 3.4 °C 1024.3 hPa WNW 33.3 km/h 33.3 km/h 69 % 0.0 mm 0.0 W/m2 CLR
07:19 8.8 °C 3.4 °C 1024.3 hPa WNW 35.2 km/h 35.2 km/h 69 % 0.0 mm 0.0 W/m2 OVC
07:24 8.8 °C 3.4 °C 1024.3 hPa WNW 33.3 km/h 33.3 km/h 69 % 0.0 mm 0.0 W/m2 OVC
07:29 8.8 °C 3.4 °C 1024.3 hPa NW 35.2 km/h 35.2 km/h 69 % 0.0 mm 5.0 W/m2 OVC
07:34 8.8 °C 3.4 °C 1024.3 hPa NW 37.0 km/h 37.0 km/h 69 % 0.0 mm 11.0 W/m2 BKN
07:39 8.8 °C 3.4 °C 1024.3 hPa WNW 33.3 km/h 33.3 km/h 69 % 0.0 mm 12.0 W/m2 BKN
07:44 8.8 °C 3.4 °C 1024.3 hPa West 35.2 km/h 35.2 km/h 69 % 0.0 mm 16.0 W/m2 BKN
07:49 8.9 °C 3.5 °C 1024.3 hPa NW 33.3 km/h 33.3 km/h 69 % 0.0 mm 19.0 W/m2 BKN
07:54 8.9 °C 3.5 °C 1024.6 hPa WNW 31.5 km/h 31.5 km/h 69 % 0.0 mm 25.0 W/m2 BKN
07:59 8.9 °C 3.6 °C 1024.3 hPa West 33.3 km/h 33.3 km/h 69 % 0.0 mm 33.0 W/m2 BKN
08:04 9.1 °C 3.7 °C 1024.3 hPa WNW 37.0 km/h 37.0 km/h 69 % 0.0 mm 40.0 W/m2 BKN
08:09 9.2 °C 3.8 °C 1024.6 hPa WNW 31.5 km/h 31.5 km/h 69 % 0.0 mm 56.0 W/m2 SCT
08:14 9.3 °C 3.7 °C 1024.6 hPa WNW 35.2 km/h 35.2 km/h 68 % 0.0 mm 62.0 W/m2 SCT
08:19 9.4 °C 3.8 °C 1024.6 hPa WNW 35.2 km/h 35.2 km/h 68 % 0.0 mm 83.0 W/m2 FEW
08:24 9.6 °C 3.9 °C 1024.6 hPa West 33.3 km/h 33.3 km/h 68 % 0.0 mm 91.0 W/m2 CLR
08:29 9.7 °C 3.9 °C 1024.6 hPa WNW 33.3 km/h 33.3 km/h 67 % 0.0 mm 121.0 W/m2 CLR
08:34 9.9 °C 4.1 °C 1024.6 hPa WNW 38.9 km/h 38.9 km/h 67 % 0.0 mm 148.0 W/m2 CLR
08:39 10.1 °C 4.0 °C 1024.6 hPa NW 42.6 km/h 42.6 km/h 66 % 0.0 mm 162.0 W/m2 CLR
08:44 10.2 °C 4.2 °C 1024.6 hPa WNW 40.7 km/h 40.7 km/h 66 % 0.0 mm 185.0 W/m2 CLR
08:49 10.3 °C 4.2 °C 1024.6 hPa NW 38.9 km/h 38.9 km/h 66 % 0.0 mm 192.0 W/m2 CLR
08:54 10.4 °C 4.3 °C 1024.9 hPa NW 27.8 km/h 27.8 km/h 66 % 0.0 mm 206.0 W/m2 CLR
08:59 10.6 °C 4.2 °C 1024.9 hPa WNW 35.2 km/h 35.2 km/h 65 % 0.0 mm 229.0 W/m2 CLR
09:04 10.7 °C 4.3 °C 1024.9 hPa WNW 35.2 km/h 35.2 km/h 65 % 0.0 mm 246.0 W/m2 CLR
09:09 10.9 °C 4.1 °C 1024.9 hPa WNW 35.2 km/h 35.2 km/h 63 % 0.0 mm 264.0 W/m2 CLR
09:14 11.1 °C 4.3 °C 1024.6 hPa NW 35.4 km/h 35.4 km/h 63 % 0.0 mm 278.0 W/m2 CLR
09:19 11.2 °C 4.2 °C 1024.9 hPa WNW 37.0 km/h 37.0 km/h 62 % 0.0 mm 295.0 W/m2 CLR
09:24 11.3 °C 4.6 °C 1024.9 hPa NW 31.5 km/h 31.5 km/h 63 % 0.0 mm 302.0 W/m2 CLR
09:29 11.4 °C 4.2 °C 1024.9 hPa NW 37.0 km/h 37.0 km/h 61 % 0.0 mm 315.0 W/m2 CLR
09:34 11.6 °C 4.3 °C 1024.9 hPa WNW 27.8 km/h 27.8 km/h 61 % 0.0 mm 330.0 W/m2 CLR
09:39 11.7 °C 4.2 °C 1024.9 hPa NW 37.0 km/h 37.0 km/h 60 % 0.0 mm 346.0 W/m2 CLR
09:44 11.7 °C 4.2 °C 1024.9 hPa NW 42.6 km/h 42.6 km/h 60 % 0.0 mm 360.0 W/m2 CLR
09:49 11.9 °C 4.4 °C 1024.6 hPa NW 31.5 km/h 31.5 km/h 60 % 0.0 mm 374.0 W/m2 CLR
09:54 12.1 °C 4.3 °C 1024.6 hPa WNW 37.0 km/h 37.0 km/h 59 % 0.0 mm 388.0 W/m2 CLR
09:59 12.1 °C 4.3 °C 1024.3 hPa NW 46.3 km/h 46.3 km/h 59 % 0.0 mm 399.0 W/m2 CLR
10:04 12.1 °C 4.6 °C 1024.3 hPa NW 40.7 km/h 40.7 km/h 60 % 0.0 mm 417.0 W/m2 CLR
10:09 12.2 °C 4.7 °C 1024.3 hPa NW 38.9 km/h 38.9 km/h 60 % 0.0 mm 431.0 W/m2 CLR
10:14 12.5 °C 4.9 °C 1024.3 hPa WNW 32.2 km/h 32.2 km/h 60 % 0.0 mm 441.0 W/m2 CLR
10:19 12.6 °C 4.8 °C 1024.3 hPa WNW 40.7 km/h 40.7 km/h 59 % 0.0 mm 457.0 W/m2 CLR
10:24 12.6 °C 4.8 °C 1024.3 hPa NW 31.5 km/h 31.5 km/h 59 % 0.0 mm 469.0 W/m2 CLR
10:29 12.9 °C 5.1 °C 1024.3 hPa NNW 29.6 km/h 29.6 km/h 59 % 0.0 mm 482.0 W/m2 CLR
10:34 13.1 °C 5.0 °C 1024.3 hPa NW 46.3 km/h 46.3 km/h 58 % 0.0 mm 494.0 W/m2 CLR
10:39 13.2 °C 4.6 °C 1023.9 hPa NW 46.3 km/h 46.3 km/h 56 % 0.0 mm 508.0 W/m2 CLR
10:44 13.4 °C 4.6 °C 1023.9 hPa NW 51.8 km/h 51.8 km/h 55 % 0.0 mm 519.0 W/m2 CLR
10:49 13.7 °C 5.1 °C 1023.6 hPa NW 44.4 km/h 44.4 km/h 56 % 0.0 mm 531.0 W/m2 CLR
10:54 13.9 °C 5.2 °C 1023.6 hPa NNW 46.3 km/h 46.3 km/h 56 % 0.0 mm 541.0 W/m2 CLR
10:59 14.0 °C 5.3 °C 1023.6 hPa NW 44.4 km/h 44.4 km/h 56 % 0.0 mm 559.0 W/m2 CLR
11:04 14.1 °C 5.2 °C 1023.6 hPa NW 48.1 km/h 48.1 km/h 55 % 0.0 mm 561.0 W/m2 CLR
11:09 14.3 °C 5.6 °C 1023.6 hPa WNW 35.2 km/h 35.2 km/h 56 % 0.0 mm 564.0 W/m2 CLR
11:15 14.3 °C 5.4 °C 1023.6 hPa NW 50.0 km/h 50.0 km/h 55 % 0.0 mm 541.0 W/m2 CLR
11:20 14.5 °C 5.6 °C 1023.6 hPa NW 42.6 km/h 42.6 km/h 55 % 0.0 mm 603.0 W/m2 CLR
11:25 14.7 °C 5.4 °C 1023.6 hPa NNW 44.4 km/h 44.4 km/h 54 % 0.0 mm 613.0 W/m2 CLR
11:30 14.8 °C 5.6 °C 1023.2 hPa WNW 42.6 km/h 42.6 km/h 54 % 0.0 mm 608.0 W/m2 CLR
11:35 15.1 °C 5.6 °C 1023.2 hPa NNW 44.4 km/h 44.4 km/h 53 % 0.0 mm 619.0 W/m2 CLR
11:40 15.2 °C 5.7 °C 1023.2 hPa NNW 38.9 km/h 38.9 km/h 53 % 0.0 mm 564.0 W/m2 CLR
11:45 15.1 °C 5.9 °C 1023.2 hPa WNW 46.7 km/h 46.7 km/h 54 % 0.0 mm 633.0 W/m2 CLR
11:50 15.1 °C 5.3 °C 1023.6 hPa NW 51.8 km/h 51.8 km/h 52 % 0.0 mm 636.0 W/m2 CLR
11:55 15.2 °C 5.7 °C 1023.6 hPa NNW 55.5 km/h 55.5 km/h 53 % 0.0 mm 643.0 W/m2 CLR
12:00 15.2 °C 5.7 °C 1023.6 hPa NW 50.0 km/h 50.0 km/h 53 % 0.0 mm 645.0 W/m2 CLR
12:05 15.5 °C 6.2 °C 1023.6 hPa WNW 42.6 km/h 42.6 km/h 54 % 0.0 mm 654.0 W/m2 CLR
12:10 15.4 °C 6.1 °C 1023.6 hPa NW 48.1 km/h 48.1 km/h 54 % 0.0 mm 663.0 W/m2 CLR
12:15 15.6 °C 6.3 °C 1023.9 hPa NNW 48.1 km/h 48.1 km/h 54 % 0.0 mm 664.0 W/m2 CLR
12:20 15.6 °C 6.3 °C 1023.2 hPa WNW 44.4 km/h 44.4 km/h 54 % 0.0 mm 670.0 W/m2 CLR
12:25 16.0 °C 6.7 °C 1023.2 hPa NNW 35.2 km/h 35.2 km/h 54 % 0.0 mm 675.0 W/m2 CLR
12:30 16.2 °C 7.1 °C 1023.6 hPa NW 41.8 km/h 41.8 km/h 55 % 0.0 mm 679.0 W/m2 CLR
12:35 16.3 °C 7.0 °C 1023.2 hPa West 42.6 km/h 42.6 km/h 54 % 0.0 mm 684.0 W/m2 CLR
12:40 16.6 °C 7.3 °C 1022.9 hPa NW 37.0 km/h 37.0 km/h 54 % 0.0 mm 687.0 W/m2 CLR
12:45 16.8 °C 7.4 °C 1023.2 hPa NNW 44.4 km/h 44.4 km/h 54 % 0.0 mm 687.0 W/m2 CLR
12:50 16.8 °C 7.7 °C 1023.2 hPa NW 40.7 km/h 40.7 km/h 55 % 0.0 mm 689.0 W/m2 CLR
12:55 16.8 °C 7.9 °C 1023.6 hPa NW 48.3 km/h 48.3 km/h 56 % 0.0 mm 693.0 W/m2 CLR
13:00 16.8 °C 7.7 °C 1023.2 hPa NNW 46.7 km/h 46.7 km/h 55 % 0.0 mm 689.0 W/m2 CLR
13:05 16.5 °C 7.7 °C 1023.6 hPa NNW 72.2 km/h 72.2 km/h 56 % 0.0 mm 687.0 W/m2 CLR
13:10 16.6 °C 7.7 °C 1023.2 hPa NNW 38.9 km/h 38.9 km/h 56 % 0.0 mm 689.0 W/m2 CLR
13:15 16.8 °C 8.0 °C 1023.2 hPa NNW 46.3 km/h 46.3 km/h 56 % 0.0 mm 693.0 W/m2 CLR
13:20 16.8 °C 7.7 °C 1023.2 hPa NNW 51.8 km/h 51.8 km/h 55 % 0.0 mm 693.0 W/m2 CLR
13:25 16.7 °C 7.6 °C 1023.2 hPa NW 40.2 km/h 40.2 km/h 55 % 0.0 mm 708.0 W/m2 CLR
13:30 16.9 °C 7.8 °C 1023.2 hPa NW 50.0 km/h 50.0 km/h 55 % 0.0 mm 689.0 W/m2 CLR
13:35 16.9 °C 8.1 °C 1022.9 hPa NW 46.3 km/h 46.3 km/h 56 % 0.0 mm 691.0 W/m2 CLR
13:40 17.0 °C 7.9 °C 1023.2 hPa NW 42.6 km/h 42.6 km/h 55 % 0.0 mm 689.0 W/m2 CLR
13:45 17.2 °C 8.1 °C 1022.9 hPa WNW 29.6 km/h 29.6 km/h 55 % 0.0 mm 684.0 W/m2 CLR
13:50 17.6 °C 8.4 °C 1022.9 hPa NW 27.8 km/h 27.8 km/h 55 % 0.0 mm 682.0 W/m2 CLR
13:55 17.6 °C 8.4 °C 1022.9 hPa NNW 29.6 km/h 29.6 km/h 55 % 0.0 mm 679.0 W/m2 CLR
14:00 17.7 °C 8.2 °C 1022.6 hPa NNW 53.7 km/h 53.7 km/h 54 % 0.0 mm 673.0 W/m2 CLR
14:05 17.7 °C 8.2 °C 1022.9 hPa NNW 55.5 km/h 55.5 km/h 54 % 0.0 mm 668.0 W/m2 CLR
14:10 17.4 °C 8.6 °C 1022.6 hPa NW 51.8 km/h 51.8 km/h 56 % 0.0 mm 668.0 W/m2 CLR
14:15 17.4 °C 8.3 °C 1022.6 hPa NNW 46.3 km/h 46.3 km/h 55 % 0.0 mm 650.0 W/m2 CLR
14:20 17.4 °C 8.3 °C 1022.6 hPa NNW 51.8 km/h 51.8 km/h 55 % 0.0 mm 659.0 W/m2 CLR
14:25 17.4 °C 8.3 °C 1022.6 hPa NNW 55.5 km/h 55.5 km/h 55 % 0.0 mm 647.0 W/m2 CLR
14:30 17.4 °C 8.5 °C 1022.6 hPa NW 48.3 km/h 48.3 km/h 56 % 0.0 mm 649.0 W/m2 CLR
14:35 17.3 °C 8.4 °C 1022.9 hPa NNW 42.6 km/h 42.6 km/h 56 % 0.0 mm 636.0 W/m2 CLR
14:40 17.7 °C 8.5 °C 1022.6 hPa NW 42.6 km/h 42.6 km/h 55 % 0.0 mm 633.0 W/m2 CLR
14:45 17.6 °C 8.4 °C 1022.6 hPa NNW 48.1 km/h 48.1 km/h 55 % 0.0 mm 628.0 W/m2 CLR
14:50 17.5 °C 8.3 °C 1022.6 hPa NNW 59.5 km/h 59.5 km/h 55 % 0.0 mm 624.0 W/m2 CLR
14:55 17.6 °C 8.4 °C 1022.2 hPa NW 53.1 km/h 53.1 km/h 55 % 0.0 mm 621.0 W/m2 CLR
15:00 17.6 °C 8.7 °C 1022.6 hPa NNW 40.7 km/h 40.7 km/h 56 % 0.0 mm 617.0 W/m2 CLR
15:05 17.8 °C 8.7 °C 1022.2 hPa NNW 46.7 km/h 46.7 km/h 55 % 0.0 mm 626.0 W/m2 CLR
15:10 17.8 °C 8.6 °C 1022.2 hPa North 42.6 km/h 42.6 km/h 55 % 0.0 mm 650.0 W/m2 CLR
15:15 18.0 °C 9.1 °C 1022.2 hPa North 35.4 km/h 35.4 km/h 56 % 0.0 mm 603.0 W/m2 CLR
15:20 18.2 °C 9.0 °C 1022.2 hPa North 43.4 km/h 43.4 km/h 55 % 0.0 mm 594.0 W/m2 CLR
15:25 18.2 °C 9.0 °C 1022.2 hPa NW 48.1 km/h 48.1 km/h 55 % 0.0 mm 592.0 W/m2 CLR
15:30 18.2 °C 9.0 °C 1022.2 hPa North 44.4 km/h 44.4 km/h 55 % 0.0 mm 575.0 W/m2 CLR
15:35 18.1 °C 8.9 °C 1021.9 hPa NW 48.1 km/h 48.1 km/h 55 % 0.0 mm 693.0 W/m2 CLR
15:40 18.1 °C 9.2 °C 1021.9 hPa NNW 46.3 km/h 46.3 km/h 56 % 0.0 mm 680.0 W/m2 CLR
15:45 18.1 °C 8.9 °C 1022.2 hPa NNW 42.6 km/h 42.6 km/h 55 % 0.0 mm 680.0 W/m2 CLR
15:50 18.1 °C 8.6 °C 1022.2 hPa NNW 59.5 km/h 59.5 km/h 54 % 0.0 mm 248.0 W/m2 CLR
15:55 17.5 °C 8.3 °C 1022.2 hPa NW 53.7 km/h 53.7 km/h 55 % 0.0 mm 130.0 W/m2 CLR
16:00 17.4 °C 8.5 °C 1021.9 hPa NW 37.0 km/h 37.0 km/h 56 % 0.0 mm 130.0 W/m2 CLR
16:05 17.7 °C 8.8 °C 1021.9 hPa NW 51.5 km/h 51.5 km/h 56 % 0.0 mm 455.0 W/m2 CLR
16:10 18.0 °C 8.6 °C 1021.9 hPa NW 50.0 km/h 50.0 km/h 54 % 0.0 mm 432.0 W/m2 CLR
16:15 18.1 °C 8.4 °C 1021.9 hPa NNW 55.5 km/h 55.5 km/h 53 % 0.0 mm 420.0 W/m2 CLR
16:20 18.3 °C 8.3 °C 1021.9 hPa NNW 50.0 km/h 50.0 km/h 52 % 0.0 mm 399.0 W/m2 CLR
16:25 18.3 °C 8.6 °C 1022.6 hPa NW 38.9 km/h 38.9 km/h 53 % 0.0 mm 387.0 W/m2 CLR
16:30 18.3 °C 8.6 °C 1022.2 hPa NW 50.0 km/h 50.0 km/h 53 % 0.0 mm 404.0 W/m2 CLR
16:36 18.3 °C 8.6 °C 1022.6 hPa NNW 38.9 km/h 38.9 km/h 53 % 0.0 mm 381.0 W/m2 CLR
16:41 18.3 °C 8.6 °C 1022.6 hPa WNW 37.0 km/h 37.0 km/h 53 % 0.0 mm 425.0 W/m2 CLR
16:46 18.4 °C 8.3 °C 1022.2 hPa WNW 53.7 km/h 53.7 km/h 52 % 0.0 mm 434.0 W/m2 CLR
16:51 18.4 °C 8.3 °C 1022.2 hPa NNW 51.8 km/h 51.8 km/h 52 % 0.0 mm 394.0 W/m2 CLR
16:56 18.4 °C 8.6 °C 1022.2 hPa NW 29.6 km/h 29.6 km/h 53 % 0.0 mm 352.0 W/m2 CLR
17:01 18.5 °C 8.7 °C 1022.2 hPa NW 18.5 km/h 18.5 km/h 53 % 0.0 mm 302.0 W/m2 CLR
17:06 18.4 °C 8.7 °C 1022.2 hPa NW 40.2 km/h 40.2 km/h 53 % 0.0 mm 302.0 W/m2 CLR
17:11 18.5 °C 8.4 °C 1022.2 hPa NNW 31.5 km/h 31.5 km/h 52 % 0.0 mm 308.0 W/m2 CLR
17:16 18.4 °C 8.3 °C 1022.2 hPa NW 46.3 km/h 46.3 km/h 52 % 0.0 mm 294.0 W/m2 CLR
17:21 18.3 °C 8.3 °C 1022.2 hPa West 35.2 km/h 35.2 km/h 52 % 0.0 mm 283.0 W/m2 CLR
17:26 18.3 °C 8.2 °C 1022.2 hPa NNW 50.0 km/h 50.0 km/h 52 % 0.0 mm 230.0 W/m2 CLR
17:31 18.2 °C 8.2 °C 1022.2 hPa NNW 37.0 km/h 37.0 km/h 52 % 0.0 mm 195.0 W/m2 CLR
17:36 18.1 °C 8.1 °C 1022.6 hPa NW 37.0 km/h 37.0 km/h 52 % 0.0 mm 123.0 W/m2 CLR
17:41 17.9 °C 8.2 °C 1022.2 hPa NNW 40.2 km/h 40.2 km/h 53 % 0.0 mm 98.0 W/m2 CLR
17:46 17.8 °C 8.1 °C 1022.2 hPa NNW 40.7 km/h 40.7 km/h 53 % 0.0 mm 98.0 W/m2 CLR
17:51 17.6 °C 7.6 °C 1022.6 hPa NNW 37.0 km/h 37.0 km/h 52 % 0.0 mm 53.0 W/m2 FEW
17:56 17.3 °C 7.7 °C 1022.6 hPa NW 40.7 km/h 40.7 km/h 53 % 0.0 mm 44.0 W/m2 SCT
18:01 17.2 °C 7.8 °C 1022.6 hPa NW 44.4 km/h 44.4 km/h 54 % 0.0 mm 46.0 W/m2 SCT
18:06 17.1 °C 7.9 °C 1022.6 hPa NNW 35.2 km/h 35.2 km/h 55 % 0.0 mm 46.0 W/m2 SCT
18:11 17.0 °C 8.2 °C 1022.6 hPa WNW 31.5 km/h 31.5 km/h 56 % 0.0 mm 49.0 W/m2 SCT
18:16 16.9 °C 8.1 °C 1022.6 hPa NNW 40.7 km/h 40.7 km/h 56 % 0.0 mm 47.0 W/m2 SCT
18:21 16.9 °C 8.1 °C 1022.6 hPa NNW 46.3 km/h 46.3 km/h 56 % 0.0 mm 42.0 W/m2 BKN
18:26 16.9 °C 8.1 °C 1022.6 hPa NNW 35.2 km/h 35.2 km/h 56 % 0.0 mm 40.0 W/m2 BKN
18:31 16.8 °C 8.0 °C 1022.6 hPa NW 43.4 km/h 43.4 km/h 56 % 0.0 mm 32.0 W/m2 BKN
18:36 16.8 °C 7.7 °C 1022.6 hPa NNW 42.6 km/h 42.6 km/h 55 % 0.0 mm 25.0 W/m2 BKN
18:41 16.7 °C 7.9 °C 1022.6 hPa NNW 38.9 km/h 38.9 km/h 56 % 0.0 mm 18.0 W/m2 BKN
18:46 16.7 °C 7.8 °C 1022.6 hPa NNW 40.7 km/h 40.7 km/h 56 % 0.0 mm 12.0 W/m2 BKN
18:51 16.6 °C 7.8 °C 1022.6 hPa NNW 33.3 km/h 33.3 km/h 56 % 0.0 mm 7.0 W/m2 BKN
18:56 16.5 °C 7.9 °C 1022.6 hPa NW 35.2 km/h 35.2 km/h 57 % 0.0 mm 0.0 W/m2 OVC
19:01 16.4 °C 7.8 °C 1022.9 hPa NNW 38.9 km/h 38.9 km/h 57 % 0.0 mm 0.0 W/m2 CLR
19:06 16.3 °C 7.8 °C 1022.9 hPa NNW 27.8 km/h 27.8 km/h 57 % 0.0 mm 0.0 W/m2 CLR
19:11 16.2 °C 7.7 °C 1023.2 hPa North 33.3 km/h 33.3 km/h 57 % 0.0 mm 0.0 W/m2 CLR
19:16 16.2 °C 7.9 °C 1023.2 hPa NW 27.8 km/h 27.8 km/h 58 % 0.0 mm 0.0 W/m2 CLR
19:21 16.1 °C 7.8 °C 1022.9 hPa NW 29.6 km/h 29.6 km/h 58 % 0.0 mm 0.0 W/m2 CLR
19:26 16.1 °C 8.1 °C 1023.2 hPa NW 35.2 km/h 35.2 km/h 59 % 0.0 mm 0.0 W/m2 CLR
19:31 16.0 °C 8.0 °C 1023.2 hPa NNW 38.9 km/h 38.9 km/h 59 % 0.0 mm 0.0 W/m2 CLR
19:36 15.9 °C 8.1 °C 1023.2 hPa NW 33.3 km/h 33.3 km/h 60 % 0.0 mm 0.0 W/m2 CLR
19:41 15.9 °C 8.1 °C 1023.2 hPa NW 40.7 km/h 40.7 km/h 60 % 0.0 mm 0.0 W/m2 CLR
19:46 15.8 °C 8.3 °C 1023.2 hPa NW 37.0 km/h 37.0 km/h 61 % 0.0 mm 0.0 W/m2 CLR
19:51 15.7 °C 8.2 °C 1023.6 hPa NW 38.9 km/h 38.9 km/h 61 % 0.0 mm 0.0 W/m2 CLR
20:01 15.6 °C 8.6 °C 1023.6 hPa NNW 45.1 km/h 45.1 km/h 63 % 0.0 mm 0.0 W/m2 CLR
20:06 15.5 °C 8.5 °C 1023.6 hPa NNW 33.3 km/h 33.3 km/h 63 % 0.0 mm 0.0 W/m2 CLR
20:11 15.4 °C 8.7 °C 1023.6 hPa NW 40.7 km/h 40.7 km/h 64 % 0.0 mm 0.0 W/m2 CLR
20:16 15.5 °C 8.7 °C 1023.6 hPa NW 40.7 km/h 40.7 km/h 64 % 0.0 mm 0.0 W/m2 CLR
20:21 15.4 °C 8.6 °C 1023.2 hPa NW 33.8 km/h 33.8 km/h 64 % 0.0 mm 0.0 W/m2 CLR
20:26 15.3 °C 8.8 °C 1023.2 hPa NW 40.7 km/h 40.7 km/h 65 % 0.0 mm 0.0 W/m2 CLR
20:31 15.3 °C 8.7 °C 1023.2 hPa NW 50.0 km/h 50.0 km/h 65 % 0.0 mm 0.0 W/m2 CLR
20:36 15.3 °C 8.8 °C 1023.2 hPa NW 48.1 km/h 48.1 km/h 65 % 0.0 mm 0.0 W/m2 CLR
20:41 15.3 °C 8.8 °C 1023.2 hPa NW 38.9 km/h 38.9 km/h 65 % 0.0 mm 0.0 W/m2 CLR
20:46 15.3 °C 8.7 °C 1023.2 hPa NW 48.1 km/h 48.1 km/h 65 % 0.0 mm 0.0 W/m2 CLR
20:51 15.3 °C 8.8 °C 1023.2 hPa NW 46.3 km/h 46.3 km/h 65 % 0.0 mm 0.0 W/m2 CLR
20:56 15.3 °C 8.8 °C 1022.9 hPa WNW 53.7 km/h 53.7 km/h 65 % 0.0 mm 0.0 W/m2 CLR
21:01 15.3 °C 8.7 °C 1023.2 hPa NW 37.0 km/h 37.0 km/h 65 % 0.0 mm 0.0 W/m2 CLR
21:06 15.2 °C 8.9 °C 1023.2 hPa NNW 44.4 km/h 44.4 km/h 66 % 0.0 mm 0.0 W/m2 CLR
21:11 15.2 °C 8.8 °C 1023.2 hPa WNW 37.0 km/h 37.0 km/h 66 % 0.0 mm 0.0 W/m2 CLR
21:16 15.1 °C 8.8 °C 1023.6 hPa NW 37.0 km/h 37.0 km/h 66 % 0.0 mm 0.0 W/m2 CLR
21:21 15.1 °C 8.8 °C 1023.6 hPa NNW 37.0 km/h 37.0 km/h 66 % 0.0 mm 0.0 W/m2 CLR
21:26 15.0 °C 8.7 °C 1023.6 hPa NW 31.5 km/h 31.5 km/h 66 % 0.0 mm 0.0 W/m2 CLR
21:31 15.0 °C 8.9 °C 1023.2 hPa NNW 42.6 km/h 42.6 km/h 67 % 0.0 mm 0.0 W/m2 CLR
21:36 15.0 °C 8.7 °C 1023.2 hPa NW 50.0 km/h 50.0 km/h 66 % 0.0 mm 0.0 W/m2 CLR
21:41 14.9 °C 8.8 °C 1023.2 hPa WNW 31.5 km/h 31.5 km/h 67 % 0.0 mm 0.0 W/m2 CLR
21:46 14.8 °C 8.8 °C 1023.2 hPa West 35.2 km/h 35.2 km/h 67 % 0.0 mm 0.0 W/m2 CLR
21:51 14.8 °C 8.9 °C 1023.2 hPa NW 48.1 km/h 48.1 km/h 68 % 0.0 mm 0.0 W/m2 CLR
21:56 14.8 °C 8.9 °C 1023.2 hPa NW 46.7 km/h 46.7 km/h 68 % 0.0 mm 0.0 W/m2 CLR
22:01 14.8 °C 8.9 °C 1023.2 hPa NW 40.7 km/h 40.7 km/h 68 % 0.0 mm 0.0 W/m2 CLR
22:06 14.7 °C 8.9 °C 1023.2 hPa WNW 55.5 km/h 55.5 km/h 68 % 0.0 mm 0.0 W/m2 CLR
22:11 14.8 °C 8.9 °C 1023.2 hPa WNW 55.5 km/h 55.5 km/h 68 % 0.0 mm 0.0 W/m2 CLR
22:16 14.8 °C 8.9 °C 1023.2 hPa NW 61.1 km/h 61.1 km/h 68 % 0.0 mm 0.0 W/m2 CLR
22:21 14.7 °C 8.9 °C 1023.2 hPa NW 48.1 km/h 48.1 km/h 68 % 0.0 mm 0.0 W/m2 CLR
22:26 14.7 °C 8.9 °C 1023.6 hPa NW 40.7 km/h 40.7 km/h 68 % 0.0 mm 0.0 W/m2 CLR
22:31 14.7 °C 8.8 °C 1023.6 hPa WNW 46.3 km/h 46.3 km/h 68 % 0.0 mm 0.0 W/m2 CLR
22:36 14.6 °C 8.8 °C 1023.6 hPa WNW 46.3 km/h 46.3 km/h 68 % 0.0 mm 0.0 W/m2 CLR
22:41 14.6 °C 8.8 °C 1023.6 hPa NW 48.1 km/h 48.1 km/h 68 % 0.0 mm 0.0 W/m2 CLR
22:46 14.5 °C 8.9 °C 1023.6 hPa WNW 40.7 km/h 40.7 km/h 69 % 0.0 mm 0.0 W/m2 CLR
22:51 14.4 °C 8.8 °C 1023.6 hPa NW 61.1 km/h 61.1 km/h 69 % 0.0 mm 0.0 W/m2 CLR
22:56 14.4 °C 9.0 °C 1023.9 hPa NW 44.4 km/h 44.4 km/h 70 % 0.0 mm 0.0 W/m2 CLR
23:01 14.3 °C 8.9 °C 1023.9 hPa NW 40.7 km/h 40.7 km/h 70 % 0.0 mm 0.0 W/m2 CLR
23:06 14.3 °C 8.9 °C 1023.9 hPa WNW 38.9 km/h 38.9 km/h 70 % 0.0 mm 0.0 W/m2 CLR
23:11 14.3 °C 8.9 °C 1023.9 hPa NW 46.7 km/h 46.7 km/h 70 % 0.0 mm 0.0 W/m2 CLR
23:16 14.2 °C 8.8 °C 1023.9 hPa NW 38.9 km/h 38.9 km/h 70 % 0.0 mm 0.0 W/m2 CLR
23:21 14.2 °C 9.0 °C 1023.9 hPa NW 50.0 km/h 50.0 km/h 71 % 0.0 mm 0.0 W/m2 CLR
23:26 14.2 °C 9.0 °C 1023.9 hPa NW 46.3 km/h 46.3 km/h 71 % 0.0 mm 0.0 W/m2 CLR
23:31 14.1 °C 8.9 °C 1023.6 hPa NW 38.9 km/h 38.9 km/h 71 % 0.0 mm 0.0 W/m2 CLR
23:36 14.2 °C 9.0 °C 1023.6 hPa NW 49.9 km/h 49.9 km/h 71 % 0.0 mm 0.0 W/m2 CLR
23:41 14.2 °C 9.0 °C 1023.6 hPa NW 61.1 km/h 61.1 km/h 71 % 0.0 mm 0.0 W/m2 CLR
23:46 14.2 °C 9.0 °C 1023.6 hPa NNW 51.5 km/h 51.5 km/h 71 % 0.0 mm 0.0 W/m2 CLR
23:51 14.1 °C 8.9 °C 1023.6 hPa WNW 44.4 km/h 44.4 km/h 71 % 0.0 mm 0.0 W/m2 CLR
23:57 14.1 °C 8.9 °C 1023.6 hPa NW 61.1 km/h 61.1 km/h 71 % 0.0 mm 0.0 W/m2
Lo Temps de Massalio
Compliments of Weather Underground - 1.25 mb